Emslake — V2FL4 — position and weather

sailwx.info

Track history (hours):
 
Tides and Currents Weather Stations Pressure Air Temp Water Temp Dewpoint Dewpoint Depression Visibility Wind Speed Wind Dir Waves Ship Positions

Emslake

Last reported at 2016-Jul-25 03:34 UTC. Time now 2016-Jul-25 04:21 UTC.
Position N 58°32' E 005°11'.

Length 100 m; draft 6.3 m.

Type: Cargo ship. MMSI: 305712000.

Date/timePositionNaut miles runAvg speedWind from/ knotsBaromVisibWave heightAir tempDewpointWater temp
2016-Jul-25 03:34N 58°32' E 005°11'9 8.8
2016-Jul-25 02:34N 58°23' E 005°08'9 9.3
2016-Jul-25 01:32N 58°14' E 005°05'9 9.2
2016-Jul-25 00:31N 58°05' E 005°02'9 9.4
2016-Jul-24 23:33N 57°56' E 004°59'10 9.3
2016-Jul-24 22:31N 57°46' E 004°57'86 9.4
2016-Jul-24 13:21N 56°22' E 004°28'87 9.7
2016-Jul-24 04:24N 54°56' E 004°02'8 9.2
2016-Jul-24 03:33N 54°49' E 003°60'10 9.2
2016-Jul-24 02:25N 54°39' E 003°57'27 9.3
2016-Jul-23 23:28N 54°12' E 003°49'45 9.2
2016-Jul-23 18:33N 53°33' E 003°09'1110.6
2016-Jul-23 17:34N 53°23' E 003°03'1110.8
2016-Jul-23 16:32N 53°13' E 002°57'1010.6
2016-Jul-23 15:33N 53°03' E 002°51'12 9.8
2016-Jul-23 14:19N 52°52' E 002°44'7 9.1
2016-Jul-23 13:34N 52°45' E 002°41'12 8.3
2016-Jul-23 12:07N 52°33' E 002°36'4 7.0
2016-Jul-23 11:33N 52°30' E 002°32'7 7.1
2016-Jul-23 10:31N 52°23' E 002°28'7 7.1
2016-Jul-23 09:33N 52°17' E 002°24'8 8.0
2016-Jul-23 08:34N 52°09' E 002°19'9 9.0
2016-Jul-23 07:34N 52°01' E 002°15'1010.1
2016-Jul-23 06:34N 51°51' E 002°09'2211.3
2016-Jul-23 04:34N 51°30' E 001°56'1010.4
2016-Jul-23 03:34N 51°21' E 002°04'1110.7
2016-Jul-23 02:34N 51°11' E 001°57'1312.9
2016-Jul-23 01:33N 51°03' E 001°42'1313.2
2016-Jul-23 00:33N 50°53' E 001°28'1211.3
2016-Jul-22 23:31N 50°42' E 001°20'1111.0
2016-Jul-22 22:28N 50°35' E 001°07'1210.9
2016-Jul-22 21:23N 50°28' E 000°51'910.5
2016-Jul-22 20:33N 50°26' E 000°38'10 9.7
2016-Jul-22 19:33N 50°23' E 000°23'9 9.0
2016-Jul-22 18:33N 50°21' E 000°10'8 8.5
2016-Jul-22 17:33N 50°18' W 000°03'8 8.1
2016-Jul-22 16:33N 50°16' W 000°15'8 7.7
2016-Jul-22 15:33N 50°14' W 000°27'8 7.6
2016-Jul-22 14:33N 50°12' W 000°39'8 8.3
2016-Jul-22 13:33N 50°10' W 000°51'10 9.7
2016-Jul-22 12:33N 50°07' W 001°05'1111.3
2016-Jul-22 11:34N 50°04' W 001°22'1312.8
2016-Jul-22 10:34N 50°01' W 001°41'1413.7
2016-Jul-22 09:34N 49°57' W 002°02'1413.7
2016-Jul-22 08:33N 49°54' W 002°23'1312.6
2016-Jul-22 07:34N 49°50' W 002°41'2211.1
2016-Jul-22 05:34N 49°40' W 003°12'1010.3
2016-Jul-22 04:34N 49°35' W 003°26'1010.1
2016-Jul-22 03:34N 49°30' W 003°40'11 9.4
2016-Jul-22 02:24N 49°25' W 003°54'7 8.8
2016-Jul-22 01:33N 49°21' W 004°04'8 8.3
2016-Jul-22 00:33N 49°17' W 004°15'11 8.1
2016-Jul-21 23:14N 49°12' W 004°30'23 8.7
2016-Jul-21 20:33N 48°59' W 004°59'10 9.9
2016-Jul-21 19:33N 48°54' W 005°12'1110.7
2016-Jul-21 18:33N 48°49' W 005°27'1110.9
2016-Jul-21 17:33N 48°41' W 005°38'1211.7
2016-Jul-21 16:33N 48°31' W 005°47'1211.9
2016-Jul-21 15:33N 48°20' W 005°55'1111.4
2016-Jul-21 14:34N 48°10' W 006°03'1111.0
2016-Jul-21 13:33N 48°01' W 006°11'2010.2
2016-Jul-21 11:33N 47°43' W 006°26'  
2016-Jul-19 04:31N 39°10' W 009°50'1010.1
2016-Jul-19 03:32N 38°60' W 009°50'10 9.8
2016-Jul-19 02:31N 38°50' W 009°50'9 9.8
2016-Jul-19 01:33N 38°40' W 009°49'9 9.5
2016-Jul-19 00:33N 38°34' W 009°41'10 9.7
2016-Jul-18 23:33N 38°29' W 009°30'1010.2
2016-Jul-18 22:33N 38°23' W 009°19'9 9.5
2016-Jul-18 21:33N 38°23' W 009°07'1010.1
2016-Jul-18 20:33N 38°29' W 008°56'5 4.4
2016-Jul-18 19:32N 38°30' W 008°51'0 0.0
2016-Jul-18 18:32N 38°30' W 008°51'0 0.0
2016-Jul-18 17:29N 38°30' W 008°51'0 0.0
2016-Jul-18 16:32N 38°30' W 008°51'0 0.0
2016-Jul-18 15:29N 38°30' W 008°51'0 0.0
2016-Jul-18 14:32N 38°30' W 008°51'0 0.0
2016-Jul-18 13:26N 38°30' W 008°51'0 0.0
2016-Jul-18 12:32N 38°30' W 008°51'0 0.0
2016-Jul-18 11:32N 38°30' W 008°51'0 0.0
2016-Jul-18 10:32N 38°30' W 008°51'0 0.0
2016-Jul-18 09:32N 38°30' W 008°51'0 0.0
2016-Jul-18 08:29N 38°30' W 008°51'0 0.0
2016-Jul-18 07:32N 38°30' W 008°51'0 0.0
2016-Jul-18 06:32N 38°30' W 008°51'0 0.0
2016-Jul-18 05:32N 38°30' W 008°51'0 0.0
2016-Jul-18 04:32N 38°30' W 008°51'0 0.0
2016-Jul-18 03:29N 38°30' W 008°51'0 0.0
2016-Jul-18 02:32N 38°30' W 008°51'0 0.0
2016-Jul-18 01:29N 38°30' W 008°51'0 0.0
2016-Jul-18 00:32N 38°30' W 008°51'0 0.0
2016-Jul-17 23:32N 38°30' W 008°51'0 0.0
2016-Jul-17 22:32N 38°30' W 008°51'0 0.0
2016-Jul-17 21:32N 38°30' W 008°51'0 0.0
2016-Jul-17 20:32N 38°30' W 008°51'0 0.0
2016-Jul-17 19:32N 38°30' W 008°51'0 0.0
2016-Jul-17 18:32N 38°30' W 008°51'0 0.0
2016-Jul-17 17:29N 38°30' W 008°51'0 0.0
2016-Jul-17 16:33N 38°30' W 008°51'7 6.6
2016-Jul-17 15:34N 38°27' W 008°58'1010.0
2016-Jul-17 14:34N 38°21' W 009°09'9 8.6
2016-Jul-17 13:34N 38°22' W 009°20'9 9.4
2016-Jul-17 12:34N 38°25' W 009°31'9 9.4
2016-Jul-17 11:34N 38°28' W 009°42'10 9.8
2016-Jul-17 10:33N 38°32' W 009°54'10 9.6
2016-Jul-17 09:34N 38°38' W 010°04'9 9.3
2016-Jul-17 08:33N 38°47' W 010°05'9 8.6
2016-Jul-17 07:33N 38°56' W 010°06'9 8.9
2016-Jul-17 06:33N 39°05' W 010°06'18 9.0
2016-Jul-17 04:33N 39°23' W 010°06'9 9.0
2016-Jul-17 03:33N 39°32' W 010°06'9 8.7
2016-Jul-17 02:33N 39°40' W 010°06'10 9.0
2016-Jul-17 01:25N 39°51' W 010°06'16 8.8
2016-Jul-16 23:34N 40°07' W 010°06'9 8.8
2016-Jul-16 22:34N 40°16' W 010°06'18 8.8
2016-Jul-16 20:33N 40°34' W 010°06'9 8.7
2016-Jul-16 19:33N 40°42' W 010°06'9 9.2
2016-Jul-16 18:33N 40°51' W 010°06'9 9.5
2016-Jul-16 17:33N 41°01' W 010°06'144 9.6
2016-Jul-16 02:30N 43°25' W 009°60'158 9.8
2016-Jul-15 10:29N 43°49' W 006°24'11 9.7
2016-Jul-15 09:18N 43°48' W 006°09'2411.0
2016-Jul-15 07:07N 43°46' W 005°36'711.2
2016-Jul-15 06:32N 43°45' W 005°27'1111.3
2016-Jul-15 05:32N 43°44' W 005°11'1111.2
2016-Jul-15 04:33N 43°43' W 004°56'  
Track history (hours):
 
Tides and Currents Weather Stations Pressure Air Temp Water Temp Dewpoint Dewpoint Depression Visibility Wind Speed Wind Dir Waves Ship Positions

Emslake

Last reported at 2016-Jul-25 03:34 UTC. Time now 2016-Jul-25 04:21 UTC.
Position N 58°32' E 005°11'.

Length 100 m; draft 6.3 m.

Type: Cargo ship. MMSI: 305712000.

Date/timePositionNaut miles runAvg speedWind from/ knotsBaromVisibWave heightAir tempDewpointWater temp
2016-Jul-25 03:34N 58°32' E 005°11'9 8.8
2016-Jul-25 02:34N 58°23' E 005°08'9 9.3
2016-Jul-25 01:32N 58°14' E 005°05'9 9.2
2016-Jul-25 00:31N 58°05' E 005°02'9 9.4
2016-Jul-24 23:33N 57°56' E 004°59'10 9.3
2016-Jul-24 22:31N 57°46' E 004°57'86 9.4
2016-Jul-24 13:21N 56°22' E 004°28'87 9.7
2016-Jul-24 04:24N 54°56' E 004°02'8 9.2
2016-Jul-24 03:33N 54°49' E 003°60'10 9.2
2016-Jul-24 02:25N 54°39' E 003°57'27 9.3
2016-Jul-23 23:28N 54°12' E 003°49'45 9.2
2016-Jul-23 18:33N 53°33' E 003°09'1110.6
2016-Jul-23 17:34N 53°23' E 003°03'1110.8
2016-Jul-23 16:32N 53°13' E 002°57'1010.6
2016-Jul-23 15:33N 53°03' E 002°51'12 9.8
2016-Jul-23 14:19N 52°52' E 002°44'7 9.1
2016-Jul-23 13:34N 52°45' E 002°41'12 8.3
2016-Jul-23 12:07N 52°33' E 002°36'4 7.0
2016-Jul-23 11:33N 52°30' E 002°32'7 7.1
2016-Jul-23 10:31N 52°23' E 002°28'7 7.1
2016-Jul-23 09:33N 52°17' E 002°24'8 8.0
2016-Jul-23 08:34N 52°09' E 002°19'9 9.0
2016-Jul-23 07:34N 52°01' E 002°15'1010.1
2016-Jul-23 06:34N 51°51' E 002°09'2211.3
2016-Jul-23 04:34N 51°30' E 001°56'1010.4
2016-Jul-23 03:34N 51°21' E 002°04'1110.7
2016-Jul-23 02:34N 51°11' E 001°57'1312.9
2016-Jul-23 01:33N 51°03' E 001°42'1313.2
2016-Jul-23 00:33N 50°53' E 001°28'1211.3
2016-Jul-22 23:31N 50°42' E 001°20'1111.0
2016-Jul-22 22:28N 50°35' E 001°07'1210.9
2016-Jul-22 21:23N 50°28' E 000°51'910.5
2016-Jul-22 20:33N 50°26' E 000°38'10 9.7
2016-Jul-22 19:33N 50°23' E 000°23'9 9.0
2016-Jul-22 18:33N 50°21' E 000°10'8 8.5
2016-Jul-22 17:33N 50°18' W 000°03'8 8.1
2016-Jul-22 16:33N 50°16' W 000°15'8 7.7
2016-Jul-22 15:33N 50°14' W 000°27'8 7.6
2016-Jul-22 14:33N 50°12' W 000°39'8 8.3
2016-Jul-22 13:33N 50°10' W 000°51'10 9.7
2016-Jul-22 12:33N 50°07' W 001°05'1111.3
2016-Jul-22 11:34N 50°04' W 001°22'1312.8
2016-Jul-22 10:34N 50°01' W 001°41'1413.7
2016-Jul-22 09:34N 49°57' W 002°02'1413.7
2016-Jul-22 08:33N 49°54' W 002°23'1312.6
2016-Jul-22 07:34N 49°50' W 002°41'2211.1
2016-Jul-22 05:34N 49°40' W 003°12'1010.3
2016-Jul-22 04:34N 49°35' W 003°26'1010.1
2016-Jul-22 03:34N 49°30' W 003°40'11 9.4
2016-Jul-22 02:24N 49°25' W 003°54'7 8.8
2016-Jul-22 01:33N 49°21' W 004°04'8 8.3
2016-Jul-22 00:33N 49°17' W 004°15'11 8.1
2016-Jul-21 23:14N 49°12' W 004°30'23 8.7
2016-Jul-21 20:33N 48°59' W 004°59'10 9.9
2016-Jul-21 19:33N 48°54' W 005°12'1110.7
2016-Jul-21 18:33N 48°49' W 005°27'1110.9
2016-Jul-21 17:33N 48°41' W 005°38'1211.7
2016-Jul-21 16:33N 48°31' W 005°47'1211.9
2016-Jul-21 15:33N 48°20' W 005°55'1111.4
2016-Jul-21 14:34N 48°10' W 006°03'1111.0
2016-Jul-21 13:33N 48°01' W 006°11'2010.2
2016-Jul-21 11:33N 47°43' W 006°26'  
2016-Jul-19 04:31N 39°10' W 009°50'1010.1
2016-Jul-19 03:32N 38°60' W 009°50'10 9.8
2016-Jul-19 02:31N 38°50' W 009°50'9 9.8
2016-Jul-19 01:33N 38°40' W 009°49'9 9.5
2016-Jul-19 00:33N 38°34' W 009°41'10 9.7
2016-Jul-18 23:33N 38°29' W 009°30'1010.2
2016-Jul-18 22:33N 38°23' W 009°19'9 9.5
2016-Jul-18 21:33N 38°23' W 009°07'1010.1
2016-Jul-18 20:33N 38°29' W 008°56'5 4.4
2016-Jul-18 19:32N 38°30' W 008°51'0 0.0
2016-Jul-18 18:32N 38°30' W 008°51'0 0.0
2016-Jul-18 17:29N 38°30' W 008°51'0 0.0
2016-Jul-18 16:32N 38°30' W 008°51'0 0.0
2016-Jul-18 15:29N 38°30' W 008°51'0 0.0
2016-Jul-18 14:32N 38°30' W 008°51'0 0.0
2016-Jul-18 13:26N 38°30' W 008°51'0 0.0
2016-Jul-18 12:32N 38°30' W 008°51'0 0.0
2016-Jul-18 11:32N 38°30' W 008°51'0 0.0
2016-Jul-18 10:32N 38°30' W 008°51'0 0.0
2016-Jul-18 09:32N 38°30' W 008°51'0 0.0
2016-Jul-18 08:29N 38°30' W 008°51'0 0.0
2016-Jul-18 07:32N 38°30' W 008°51'0 0.0
2016-Jul-18 06:32N 38°30' W 008°51'0 0.0
2016-Jul-18 05:32N 38°30' W 008°51'0 0.0
2016-Jul-18 04:32N 38°30' W 008°51'0 0.0
2016-Jul-18 03:29N 38°30' W 008°51'0 0.0
2016-Jul-18 02:32N 38°30' W 008°51'0 0.0
2016-Jul-18 01:29N 38°30' W 008°51'0 0.0
2016-Jul-18 00:32N 38°30' W 008°51'0 0.0
2016-Jul-17 23:32N 38°30' W 008°51'0 0.0
2016-Jul-17 22:32N 38°30' W 008°51'0 0.0
2016-Jul-17 21:32N 38°30' W 008°51'0 0.0
2016-Jul-17 20:32N 38°30' W 008°51'0 0.0
2016-Jul-17 19:32N 38°30' W 008°51'0 0.0
2016-Jul-17 18:32N 38°30' W 008°51'0 0.0
2016-Jul-17 17:29N 38°30' W 008°51'0 0.0
2016-Jul-17 16:33N 38°30' W 008°51'7 6.6
2016-Jul-17 15:34N 38°27' W 008°58'1010.0
2016-Jul-17 14:34N 38°21' W 009°09'9 8.6
2016-Jul-17 13:34N 38°22' W 009°20'9 9.4
2016-Jul-17 12:34N 38°25' W 009°31'9 9.4
2016-Jul-17 11:34N 38°28' W 009°42'10 9.8
2016-Jul-17 10:33N 38°32' W 009°54'10 9.6
2016-Jul-17 09:34N 38°38' W 010°04'9 9.3
2016-Jul-17 08:33N 38°47' W 010°05'9 8.6
2016-Jul-17 07:33N 38°56' W 010°06'9 8.9
2016-Jul-17 06:33N 39°05' W 010°06'18 9.0
2016-Jul-17 04:33N 39°23' W 010°06'9 9.0
2016-Jul-17 03:33N 39°32' W 010°06'9 8.7
2016-Jul-17 02:33N 39°40' W 010°06'10 9.0
2016-Jul-17 01:25N 39°51' W 010°06'16 8.8
2016-Jul-16 23:34N 40°07' W 010°06'9 8.8
2016-Jul-16 22:34N 40°16' W 010°06'18 8.8
2016-Jul-16 20:33N 40°34' W 010°06'9 8.7
2016-Jul-16 19:33N 40°42' W 010°06'9 9.2
2016-Jul-16 18:33N 40°51' W 010°06'9 9.5
2016-Jul-16 17:33N 41°01' W 010°06'144 9.6
2016-Jul-16 02:30N 43°25' W 009°60'158 9.8
2016-Jul-15 10:29N 43°49' W 006°24'11 9.7
2016-Jul-15 09:18N 43°48' W 006°09'2411.0
2016-Jul-15 07:07N 43°46' W 005°36'711.2
2016-Jul-15 06:32N 43°45' W 005°27'1111.3
2016-Jul-15 05:32N 43°44' W 005°11'1111.2
2016-Jul-15 04:33N 43°43' W 004°56'  

Dump ship's entire track history